createdAt,value
2018-04-12T05:39:44.062Z,20.5
2018-04-12T05:40:34.454Z,20.9
2018-04-12T05:41:24.471Z,21.3
2018-04-12T05:42:14.801Z,21.6
2018-04-12T05:43:04.601Z,21.9
2018-04-12T05:43:54.927Z,22.3
2018-04-12T05:44:44.704Z,22.7
2018-04-12T05:45:35.061Z,23.1
2018-04-12T05:46:25.303Z,23.4
2018-04-12T05:47:15.186Z,23.8
2018-04-12T05:48:05.244Z,24.2
2018-04-12T05:48:55.298Z,24.6
2018-04-12T05:49:45.113Z,24.9
2018-04-12T05:50:35.158Z,25.3
2018-04-12T05:51:25.486Z,25.7
2018-04-12T05:52:15.568Z,26.1
2018-04-12T05:53:05.336Z,26.4
2018-04-12T05:53:55.399Z,26.8
2018-04-12T05:54:45.464Z,27.2
2018-04-12T05:55:35.523Z,27.6
2018-04-12T05:56:25.870Z,27.9
2018-04-12T05:57:15.937Z,28.3
2018-04-12T05:58:06.000Z,28.7
2018-04-12T05:58:56.057Z,29.1
2018-04-12T05:59:45.843Z,29.5
2018-04-12T06:00:35.623Z,29.9
2018-04-12T06:01:25.977Z,30.3
2018-04-12T06:02:16.313Z,30.8
2018-04-12T06:03:06.090Z,31.1
2018-04-12T06:03:56.427Z,31.6
2018-04-12T06:04:46.209Z,31.9
2018-04-12T06:05:36.561Z,32.4
2018-04-12T06:06:26.068Z,32.8
2018-04-12T06:07:16.677Z,33.2
2018-04-12T06:08:06.184Z,33.6
2018-04-12T06:08:56.809Z,34.1
2018-04-12T06:09:46.865Z,34.4
2018-04-12T06:10:36.923Z,34.8
2018-04-12T06:11:26.717Z,35.2
2018-04-12T06:12:17.049Z,35.6
2018-04-12T06:13:07.110Z,36.1
2018-04-12T06:13:57.168Z,36.5
2018-04-12T06:14:47.227Z,36.9
2018-04-12T06:15:36.727Z,37.3
2018-04-12T06:16:27.069Z,37.8
2018-04-12T06:17:17.427Z,38.3
2018-04-12T06:18:07.475Z,38.8
2018-04-12T06:18:57.544Z,39.2
2018-04-12T06:19:47.334Z,39.6
2018-04-12T06:20:37.404Z,40.1
2018-04-12T06:21:27.920Z,40.5
2018-04-12T06:22:17.807Z,40.9
2018-04-12T06:23:07.862Z,41.3
2018-04-12T06:23:57.916Z,41.8
2018-04-12T06:24:47.982Z,42.3
2018-04-12T06:25:37.474Z,42.7
2018-04-12T06:26:28.114Z,43.2
2018-04-12T06:27:18.169Z,43.6
2018-04-12T06:28:07.948Z,44.1
2018-04-12T06:28:58.033Z,44.6
2018-04-12T06:29:47.797Z,45
2018-04-12T06:30:38.430Z,46.1
2018-04-12T06:31:28.504Z,47.6
2018-04-12T06:32:18.560Z,47.3
2018-04-12T06:33:08.325Z,45.9
2018-04-12T06:33:58.403Z,44.6
2018-04-12T06:34:48.737Z,42.9
2018-04-12T06:35:38.249Z,41.7
2018-04-12T06:36:28.890Z,41.1
2018-04-12T06:37:18.649Z,40.6
2018-04-12T06:38:09.002Z,40.4
2018-04-12T06:38:59.046Z,40.3
2018-04-12T06:39:49.269Z,40.4
2018-04-12T06:40:38.892Z,40.7
2018-04-12T06:41:29.241Z,41.1
2018-04-12T06:42:19.049Z,41.6
2018-04-12T06:43:09.389Z,42.1
2018-04-12T06:43:59.423Z,42.8
2018-04-12T06:44:48.976Z,43.4
2018-04-12T06:45:39.551Z,44.1
2018-04-12T06:46:29.329Z,44.7
2018-04-12T06:47:19.687Z,45.4
2018-04-12T06:48:09.463Z,46.9
2018-04-12T06:48:59.799Z,48.5
2018-04-12T06:49:49.881Z,47.8
2018-04-12T06:50:39.941Z,46.4
2018-04-12T06:51:30.015Z,45.6
2018-04-12T06:52:19.779Z,44.6
2018-04-12T06:53:09.571Z,43.8
2018-04-12T06:54:00.261Z,43.4
2018-04-12T06:54:50.239Z,43.2
2018-04-12T06:55:40.318Z,43.4
2018-04-12T06:56:29.804Z,43.8
2018-04-12T06:57:20.446Z,44.4
2018-04-12T06:58:10.501Z,45
2018-04-12T06:59:00.578Z,45.7
2018-04-12T06:59:50.353Z,47.3
2018-04-12T07:00:40.695Z,49.2
2018-04-12T07:01:30.762Z,49.4
2018-04-12T07:02:20.559Z,49.3
2018-04-12T07:03:10.625Z,49.3
2018-04-12T07:04:00.992Z,49.1
2018-04-12T07:04:51.007Z,48.7
2018-04-12T07:05:41.080Z,48.1
2018-04-12T07:06:31.147Z,47.8
2018-04-12T07:07:20.910Z,47.8
2018-04-12T07:08:11.266Z,48.1
2018-04-12T07:09:01.324Z,48.7
2018-04-12T07:09:51.124Z,49.2
2018-04-12T07:10:41.485Z,49.6
2018-04-12T07:11:30.949Z,49.9
2018-04-12T07:12:21.317Z,50
2018-04-12T07:13:10.818Z,50.1
2018-04-12T07:14:01.709Z,50.1
2018-04-12T07:14:51.502Z,50.2
2018-04-12T07:15:41.571Z,50.3
2018-04-12T07:16:31.895Z,50.4
2018-04-12T07:17:21.696Z,50.7
2018-04-12T07:18:11.783Z,50.9
2018-04-12T07:19:02.088Z,51.2
2018-04-12T07:19:52.176Z,51.4
2018-04-12T07:20:41.923Z,51.6
2018-04-12T07:21:31.727Z,51.8
2018-04-12T07:23:12.156Z,52.1
2018-04-12T07:24:02.187Z,52.3
2018-04-12T07:25:42.602Z,52.6
2018-04-12T07:26:32.655Z,52.8
2018-04-12T07:27:22.177Z,53
2018-04-12T07:28:12.235Z,53.1
2018-04-12T07:29:02.582Z,53.4
2018-04-12T07:29:52.919Z,53.6
2018-04-12T07:30:42.692Z,53.8
2018-04-12T07:31:33.054Z,54
2018-04-12T07:32:22.840Z,54.2
2018-04-12T07:33:13.171Z,54.4
2018-04-12T07:34:02.968Z,54.6
2018-04-12T07:34:53.306Z,54.8
2018-04-12T07:35:43.367Z,54.9
2018-04-12T07:36:33.156Z,55.1
2018-04-12T07:37:22.932Z,55.2
2018-04-12T07:38:12.722Z,55.4
2018-04-12T07:39:03.355Z,55.5
2018-04-12T07:39:53.688Z,55.7
2018-04-12T07:40:43.777Z,55.9
2018-04-12T07:41:33.844Z,56.1
2018-04-12T07:42:23.904Z,56.3
2018-04-12T07:43:13.657Z,56.5
2018-04-12T07:44:04.011Z,56.7
2018-04-12T07:44:54.073Z,56.8
2018-04-12T07:45:44.147Z,56.9
2018-04-12T07:46:34.212Z,57.1
2018-04-12T07:47:23.974Z,57.2
2018-04-12T07:48:14.338Z,57.3
2018-04-12T07:49:04.402Z,57.4
2018-04-12T07:49:54.472Z,57.6
2018-04-12T07:51:34.600Z,57.9
2018-04-12T07:52:24.684Z,58.1
2018-04-12T07:53:14.704Z,58.3
2018-04-12T07:54:04.787Z,58.4
2018-04-12T07:55:44.910Z,58.7
2018-04-12T07:56:34.954Z,58.8
2018-04-12T07:57:25.033Z,59
2018-04-12T07:58:15.112Z,59.1
2018-04-12T07:59:04.885Z,59.3
2018-04-12T07:59:54.977Z,59.3
2018-04-12T08:00:45.017Z,59.5
2018-04-12T08:01:35.352Z,59.6
2018-04-12T08:02:25.422Z,59.8
2018-04-12T08:03:15.493Z,60
2018-04-12T08:04:04.990Z,60.1
2018-04-12T08:04:55.622Z,60.2
2018-04-12T08:05:45.708Z,60.2
2018-04-12T08:06:35.737Z,60.2
2018-04-12T08:07:25.795Z,60.1
2018-04-12T08:08:15.875Z,60.1
2018-04-12T08:09:05.401Z,60
2018-04-12T08:09:55.988Z,59.9
2018-04-12T08:10:46.051Z,59.9
2018-04-12T08:11:36.147Z,59.9
2018-04-12T08:12:26.199Z,60.1
2018-04-12T08:13:15.977Z,60.2
2018-04-12T08:14:06.309Z,60.3
2018-04-12T08:14:56.100Z,60.6
2018-04-12T08:15:46.434Z,60.8
2018-04-12T08:16:36.499Z,60.9
2018-04-12T08:17:26.569Z,61
2018-04-12T08:18:16.627Z,61.1
2018-04-12T08:19:06.702Z,61.3
2018-04-12T08:19:56.757Z,61.5
2018-04-12T08:20:46.826Z,61.8
2018-04-12T08:21:36.622Z,61.9
2018-04-12T08:22:26.961Z,62.1
2018-04-12T08:23:17.029Z,62.2
2018-04-12T08:24:06.809Z,62.3
2018-04-12T08:24:57.169Z,62.4
2018-04-12T08:25:46.949Z,62.5
2018-04-12T08:26:37.334Z,62.6
2018-04-12T08:27:27.371Z,62.8
2018-04-12T08:28:17.420Z,62.9
2018-04-12T08:29:07.469Z,63.1
2018-04-12T08:29:57.537Z,63.3
2018-04-12T08:30:47.621Z,63.4
2018-04-12T08:31:37.673Z,63.4
2018-04-12T08:32:27.481Z,63.6
2018-04-12T08:33:17.535Z,63.7
2018-04-12T08:34:07.310Z,63.8
2018-04-12T08:34:57.640Z,63.9
2018-04-12T08:35:47.993Z,64.1
2018-04-12T08:36:38.066Z,64.1
2018-04-12T08:37:27.860Z,64.3
2018-04-12T08:38:17.911Z,64.4
2018-04-12T08:39:08.249Z,64.5
2018-04-12T08:39:58.046Z,64.7
2018-04-12T08:40:48.112Z,64.9
2018-04-12T08:41:38.177Z,65
2018-04-12T08:42:28.239Z,65.2
2018-04-12T08:43:18.601Z,65.3
2018-04-12T08:44:08.371Z,65.4
2018-04-12T08:44:58.427Z,65.5
2018-04-12T08:45:48.552Z,65.6
2018-04-12T08:46:38.833Z,65.6
2018-04-12T08:47:28.346Z,65.7
2018-04-12T08:48:18.678Z,65.7
2018-04-12T08:49:09.043Z,65.8
2018-04-12T08:49:59.080Z,65.8
2018-04-12T08:50:49.181Z,65.9
2018-04-12T08:51:39.216Z,66
2018-04-12T08:52:28.820Z,66.1
2018-04-12T08:53:19.058Z,66.1
2018-04-12T08:54:09.145Z,66.2
2018-04-12T08:54:59.476Z,66.2
2018-04-12T08:55:49.750Z,66.3
2018-04-12T08:56:39.341Z,66.6
2018-04-12T08:57:29.110Z,66.8
2018-04-12T08:58:19.724Z,66.8
2018-04-12T08:59:09.523Z,66.9
2018-04-12T08:59:59.878Z,67.1
2018-04-12T09:00:49.657Z,67.2
2018-04-12T09:01:39.723Z,67.3
2018-04-12T09:02:29.581Z,67.3
2018-04-12T09:03:20.120Z,67.3
2018-04-12T09:04:09.917Z,67.3
2018-04-12T09:05:00.248Z,67.4
2018-04-12T09:05:50.040Z,67.6
2018-04-12T09:06:40.110Z,67.6
2018-04-12T09:07:30.492Z,67.8
2018-04-12T09:08:20.268Z,67.9
2018-04-12T09:09:10.302Z,68.1
2018-04-12T09:10:00.656Z,68.1
2018-04-12T09:10:50.133Z,68.3
2018-04-12T09:11:40.797Z,68.3
2018-04-12T09:12:30.857Z,68.3
2018-04-12T09:13:20.643Z,68.2
2018-04-12T09:14:10.980Z,68.2
2018-04-12T09:15:00.758Z,68
2018-04-12T09:15:50.815Z,68.2
2018-04-12T09:16:41.178Z,68.3
2018-04-12T09:17:31.224Z,68.3
2018-04-12T09:18:21.306Z,68.2
2018-04-12T09:19:11.077Z,68.1
2018-04-12T09:20:00.852Z,68.1
2018-04-12T09:20:51.506Z,68.1
2018-04-12T09:21:41.272Z,68.3
2018-04-12T09:22:31.631Z,68.3
2018-04-12T09:23:21.386Z,68.4
2018-04-12T09:24:11.479Z,68.6
2018-04-12T09:25:01.821Z,68.7
2018-04-12T09:25:51.597Z,68.8
2018-04-12T09:26:41.927Z,68.8
2018-04-12T09:27:31.717Z,68.8
2018-04-12T09:28:22.074Z,68.8
2018-04-12T09:29:12.131Z,68.8
2018-04-12T09:30:02.210Z,68.8
2018-04-12T09:30:52.257Z,68.9
2018-04-12T09:31:42.387Z,68.9
2018-04-12T09:32:32.379Z,68.9
2018-04-12T09:33:22.258Z,68.9
2018-04-12T09:34:12.259Z,69.1
2018-04-12T09:35:02.597Z,69.1
2018-04-12T09:35:52.364Z,69.1
2018-04-12T09:36:42.451Z,69.2
2018-04-12T09:37:32.501Z,69.3
2018-04-12T09:38:22.867Z,69.4
2018-04-12T09:39:12.654Z,69.4
2018-04-12T09:40:02.987Z,69.4
2018-04-12T09:40:53.029Z,69.3
2018-04-12T09:41:43.112Z,69.3
2018-04-12T09:42:32.604Z,69.3
2018-04-12T09:43:23.239Z,69.4
2018-04-12T09:44:13.310Z,69.5
2018-04-12T09:45:03.372Z,69.7
2018-04-12T09:45:53.478Z,69.8
2018-04-12T09:46:43.523Z,69.9
2018-04-12T09:47:33.576Z,69.9
2018-04-12T09:48:23.356Z,70
2018-04-12T09:49:13.513Z,70.1
2018-04-12T09:50:03.762Z,70.1
2018-04-12T09:50:53.825Z,70.1
2018-04-12T09:51:43.596Z,70.1
2018-04-12T09:52:33.664Z,70.2
2018-04-12T09:53:24.025Z,70.3
2018-04-12T09:54:14.087Z,70.4
2018-04-12T09:55:03.880Z,70.7
2018-04-12T09:55:54.200Z,70.9
2018-04-12T09:56:44.272Z,71
2018-04-12T09:57:34.350Z,71.2
2018-04-12T09:58:24.395Z,71.4
2018-04-12T09:59:14.469Z,71.5
2018-04-12T10:00:05.099Z,71.6
2018-04-12T10:00:54.624Z,71.7
2018-04-12T10:01:44.381Z,71.8
2018-04-12T10:02:34.452Z,71.9
2018-04-12T10:03:24.521Z,71.9
2018-04-12T10:04:14.852Z,72
2018-04-12T10:05:04.942Z,71.9
2018-04-12T10:05:54.714Z,71.9
2018-04-12T10:06:45.061Z,71.8
2018-04-12T10:07:35.119Z,71.8
2018-04-12T10:08:24.893Z,71.8
2018-04-12T10:09:14.982Z,71.9
2018-04-12T10:10:05.339Z,71.9
2018-04-12T10:10:55.373Z,72.1
2018-04-12T10:11:44.871Z,72.3
2018-04-12T10:12:34.960Z,72.3
2018-04-12T10:13:25.592Z,72.4
2018-04-12T10:14:15.681Z,72.6
2018-04-12T10:15:05.699Z,72.7
2018-04-12T10:15:55.765Z,72.7
2018-04-12T10:16:45.829Z,72.9
2018-04-12T10:17:35.627Z,73.1
2018-04-12T10:18:26.003Z,73.2
2018-04-12T10:19:15.732Z,73.2
2018-04-12T10:20:05.807Z,73.3
2018-04-12T10:20:56.194Z,73.4
2018-04-12T10:21:46.224Z,73.5
2018-04-12T10:22:36.019Z,73.6
2018-04-12T10:23:26.352Z,73.7
2018-04-12T10:24:16.124Z,73.7
2018-04-12T10:25:06.482Z,73.8
2018-04-12T10:25:56.535Z,73.8
2018-04-12T10:26:46.613Z,73.8
2018-04-12T10:27:36.675Z,73.8
2018-04-12T10:28:26.454Z,73.8
2018-04-12T10:29:16.809Z,73.7
2018-04-12T10:30:06.857Z,73.7
2018-04-12T10:30:56.634Z,73.6
2018-04-12T10:31:46.704Z,73.6
2018-04-12T10:32:37.099Z,73.7
2018-04-12T10:33:26.854Z,73.8
2018-04-12T10:34:17.182Z,73.8
2018-04-12T10:35:07.283Z,73.8
2018-04-12T10:35:57.342Z,73.9
2018-04-12T10:36:47.388Z,73.9
2018-04-12T10:37:37.182Z,73.9
2018-04-12T10:38:27.507Z,73.9
2018-04-12T10:39:17.303Z,73.9
2018-04-12T10:40:07.080Z,73.9
2018-04-12T10:40:57.431Z,73.9
2018-04-12T10:41:47.994Z,73.9
2018-04-12T10:42:37.829Z,73.9
2018-04-12T10:43:27.654Z,73.9
2018-04-12T10:44:17.982Z,73.9
2018-04-12T10:45:08.030Z,74.1
2018-04-12T10:45:58.116Z,74.1
2018-04-12T10:46:47.773Z,74.2
2018-04-12T10:47:37.964Z,74.3
2018-04-12T10:48:28.292Z,74.3
2018-04-12T10:49:18.087Z,74.4
2018-04-12T10:50:08.439Z,74.3
2018-04-12T10:50:58.482Z,74.4
2018-04-12T10:51:48.285Z,74.3
2018-04-12T10:52:38.641Z,74.3
2018-04-12T10:53:28.685Z,74.3
2018-04-12T10:54:18.763Z,74.3
2018-04-12T10:55:08.847Z,74.3
2018-04-12T10:55:58.886Z,74.3
2018-04-12T10:56:48.948Z,74.2
2018-04-12T10:57:39.072Z,74.2
2018-04-12T10:58:28.805Z,74.1
2018-04-12T10:59:18.898Z,74.1
2018-04-12T11:00:09.222Z,74.1
2018-04-12T11:00:59.290Z,73.9
2018-04-12T11:01:49.382Z,73.8
2018-04-12T11:02:39.425Z,73.6
2018-04-12T11:03:29.638Z,73.6
2018-04-12T11:04:18.977Z,73.5
2018-04-12T11:05:09.320Z,73.4
2018-04-12T11:05:59.397Z,73.3
2018-04-12T11:06:49.722Z,73.2
2018-04-12T11:07:39.526Z,73.1
2018-04-12T11:08:29.855Z,72.9
2018-04-12T11:09:19.654Z,72.8
2018-04-12T11:10:09.731Z,72.6
2018-04-12T11:11:00.062Z,72.4
2018-04-12T11:11:50.119Z,72.1
2018-04-12T11:12:40.189Z,71.9
2018-04-12T11:13:30.270Z,71.9
2018-04-12T11:14:20.319Z,71.8
2018-04-12T11:15:10.122Z,71.8
2018-04-12T11:16:00.461Z,71.6
2018-04-12T11:16:50.532Z,71.4
2018-04-12T11:17:40.574Z,71.3
2018-04-12T11:18:31.186Z,71.3
2018-04-12T11:19:20.431Z,71.3
2018-04-12T11:20:10.784Z,71.4
2018-04-12T11:21:00.662Z,71.5
2018-04-12T11:21:50.923Z,71.6
2018-04-12T11:22:40.683Z,71.6
2018-04-12T11:23:30.573Z,71.6
2018-04-12T11:24:21.215Z,71.5
2018-04-12T11:25:11.156Z,71.5
2018-04-12T11:26:01.326Z,71.5
2018-04-12T11:26:51.013Z,71.6
2018-04-12T11:27:41.378Z,71.6
2018-04-12T11:28:30.563Z,71.6
2018-04-12T11:29:21.406Z,71.4
2018-04-12T11:30:11.552Z,71.3
2018-04-12T11:31:01.349Z,71
2018-04-12T11:31:51.687Z,70.8
2018-04-12T11:32:41.466Z,70.6
2018-04-12T11:33:31.540Z,70.6
2018-04-12T11:34:21.777Z,70.6
2018-04-12T11:35:12.004Z,70.7
2018-04-12T11:36:02.017Z,70.9
2018-04-12T11:36:51.549Z,71.1
2018-04-12T11:37:42.132Z,71
2018-04-12T11:38:32.218Z,70.9
2018-04-12T11:39:21.976Z,70.8
2018-04-12T11:40:12.343Z,70.8
2018-04-12T11:41:02.389Z,70.7
2018-04-12T11:41:51.906Z,70.8
2018-04-12T11:42:42.236Z,70.8
2018-04-12T11:43:32.588Z,70.9
2018-04-12T11:44:22.639Z,71
2018-04-12T11:45:12.736Z,71.1
2018-04-12T11:46:02.811Z,71.2
2018-04-12T11:46:52.939Z,71.3
2018-04-12T11:47:42.921Z,71.4
2018-04-12T11:48:32.700Z,71.5
2018-04-12T11:49:22.769Z,71.6
2018-04-12T11:50:13.116Z,71.6
2018-04-12T11:51:03.194Z,71.7
2018-04-12T11:51:53.244Z,71.8
2018-04-12T11:52:43.299Z,71.9
2018-04-12T11:53:33.404Z,71.9
2018-04-12T11:54:23.164Z,72.1
2018-04-12T11:55:13.524Z,72.2
2018-04-12T11:56:03.295Z,72.3
2018-04-12T11:56:53.664Z,72.3
2018-04-12T11:57:43.431Z,72.3
2018-04-12T11:58:33.770Z,72.3
2018-04-12T11:59:23.816Z,72.3
2018-04-12T12:00:13.921Z,72.3
2018-04-12T12:01:03.572Z,72.2
2018-04-12T12:01:53.754Z,72.1
2018-04-12T12:02:43.338Z,72.1
2018-04-12T12:03:34.179Z,72.1
2018-04-12T12:04:23.473Z,72.1
2018-04-12T12:05:14.023Z,72
2018-04-12T12:06:04.348Z,71.8
2018-04-12T12:06:54.586Z,71.6
2018-04-12T12:07:44.213Z,71.4
2018-04-12T12:08:34.555Z,71.2
2018-04-12T12:09:24.330Z,71.1
2018-04-12T12:10:14.695Z,70.9
2018-04-12T12:11:04.751Z,70.8
2018-04-12T12:11:54.815Z,70.6
2018-04-12T12:12:44.911Z,70.4
2018-04-12T12:13:34.673Z,70.4
2018-04-12T12:14:25.005Z,70.4
2018-04-12T12:15:15.077Z,70.4
2018-04-12T12:16:04.583Z,70.4
2018-04-12T12:16:55.194Z,70.4
2018-04-12T12:17:45.448Z,70.3
2018-04-12T12:18:35.060Z,70.1
2018-04-12T12:19:25.102Z,70
2018-04-12T12:20:15.184Z,69.8
2018-04-12T12:21:05.538Z,69.7
2018-04-12T12:21:55.595Z,69.6
2018-04-12T12:22:45.383Z,69.4
2018-04-12T12:23:35.710Z,69.4
2018-04-12T12:24:25.525Z,69.3
2018-04-12T12:25:15.849Z,69.3
2018-04-12T12:26:05.927Z,69.3
2018-04-12T12:26:55.968Z,69.3
2018-04-12T12:27:46.038Z,69.3
2018-04-12T12:28:35.605Z,69.3
2018-04-12T12:29:26.207Z,69.4
2018-04-12T12:30:15.968Z,69.3
2018-04-12T12:31:05.740Z,69.3
2018-04-12T12:31:56.085Z,69.3
2018-04-12T12:32:46.173Z,69.2
2018-04-12T12:33:36.492Z,69.1
2018-04-12T12:34:26.574Z,69.1
2018-04-12T12:35:16.644Z,69
2018-04-12T12:36:06.718Z,68.9
2018-04-12T12:36:56.783Z,68.9
2018-04-12T12:37:46.556Z,68.9
2018-04-12T12:38:36.621Z,68.8
2018-04-12T12:39:26.976Z,68.8
2018-04-12T12:40:17.031Z,68.8
2018-04-12T12:41:06.789Z,68.8
2018-04-12T12:41:56.594Z,68.8
2018-04-12T12:42:47.237Z,68.8
2018-04-12T12:43:37.292Z,68.7
2018-04-12T12:44:27.365Z,68.7
2018-04-12T12:45:16.843Z,68.6
2018-04-12T12:46:07.498Z,68.6
2018-04-12T12:46:57.534Z,68.6
2018-04-12T12:47:47.329Z,68.5
2018-04-12T12:48:36.830Z,68.4
2018-04-12T12:49:27.741Z,68.3
2018-04-12T12:50:17.812Z,68.1
2018-04-12T12:51:07.858Z,67.9
2018-04-12T12:51:57.939Z,67.6
2018-04-12T12:52:47.718Z,67.5
2018-04-12T12:53:37.793Z,67.4
2018-04-12T12:54:27.853Z,67.3
2018-04-12T12:55:17.625Z,67.1
2018-04-12T12:56:08.455Z,67
2018-04-12T12:56:57.750Z,66.8
2018-04-12T12:57:48.378Z,66.7
2018-04-12T12:58:38.448Z,66.5
2018-04-12T12:59:28.222Z,66.3
2018-04-12T13:00:18.613Z,66
2018-04-12T13:01:08.450Z,65.8
2018-04-12T13:01:58.698Z,65.6
2018-04-12T13:02:48.765Z,65.4
2018-04-12T13:03:38.336Z,65.3
2018-04-12T13:04:28.906Z,65.1
2018-04-12T13:05:18.963Z,65
2018-04-12T13:06:09.042Z,64.9
2018-04-12T13:06:58.824Z,64.9
2018-04-12T13:07:48.873Z,65.1
2018-04-12T13:08:38.665Z,65.2
2018-04-12T13:09:29.021Z,65.4
2018-04-12T13:10:19.359Z,65.4
2018-04-12T13:11:08.866Z,65.3
2018-04-12T13:11:59.214Z,65.1
2018-04-12T13:12:48.996Z,64.8
2018-04-12T13:13:39.339Z,64.6
2018-04-12T13:14:29.126Z,64.5
2018-04-12T13:15:19.751Z,64.5
2018-04-12T13:16:09.825Z,64.4
2018-04-12T13:16:59.868Z,64.4
2018-04-12T13:17:49.963Z,64.5
2018-04-12T13:18:39.998Z,64.5
2018-04-12T13:19:30.080Z,64.4
2018-04-12T13:20:19.861Z,64.2
2018-04-12T13:21:10.203Z,63.9
2018-04-12T13:22:00.291Z,63.8
2018-04-12T13:22:50.457Z,63.8
2018-04-12T13:23:40.404Z,63.7
2018-04-12T13:24:29.601Z,63.6
2018-04-12T13:25:20.515Z,63.6
2018-04-12T13:26:10.579Z,63.4
2018-04-12T13:27:00.649Z,63.3
2018-04-12T13:27:50.434Z,63.1
2018-04-12T13:28:40.806Z,62.8
2018-04-12T13:29:30.882Z,62.6
2018-04-12T13:30:20.904Z,62.4
2018-04-12T13:31:10.985Z,62.3
2018-04-12T13:32:00.456Z,62
2018-04-12T13:32:50.799Z,61.4
2018-04-12T13:33:41.172Z,60.9
2018-04-12T13:34:30.936Z,60.6
2018-04-12T13:35:21.295Z,60.5
2018-04-12T13:36:11.354Z,60.5
2018-04-12T13:37:01.439Z,60.6
2018-04-12T13:37:51.489Z,60.8
2018-04-12T13:38:41.277Z,60.9
2018-04-12T13:39:31.384Z,61.1
2018-04-12T13:40:21.673Z,61.3
2018-04-12T13:41:11.462Z,61.4
2018-04-12T13:42:01.814Z,61.5
2018-04-12T13:42:51.604Z,61.6
2018-04-12T13:43:41.942Z,61.7
2018-04-12T13:44:32.013Z,61.6
2018-04-12T13:45:22.067Z,61.6
2018-04-12T13:46:12.146Z,61.5
2018-04-12T13:47:01.651Z,61.4
2018-04-12T13:47:51.973Z,61.4
2018-04-12T13:48:42.039Z,61.4
2018-04-12T13:49:32.396Z,61.3
2018-04-12T13:50:22.169Z,61.2
2018-04-12T13:51:12.238Z,61
2018-04-12T13:52:02.354Z,60.8
2018-04-12T13:52:52.382Z,60.6
2018-04-12T13:53:42.744Z,60.4
2018-04-12T13:54:32.498Z,60.2
2018-04-12T13:55:22.276Z,60
2018-04-12T13:56:12.922Z,59.9
2018-04-12T13:57:02.983Z,59.9
2018-04-12T13:57:52.760Z,59.9
2018-04-12T13:58:42.549Z,59.8
2018-04-12T13:59:32.878Z,59.8
2018-04-12T14:00:23.242Z,59.6
2018-04-12T14:01:13.033Z,59.6
2018-04-12T14:02:02.804Z,59.5
2018-04-12T14:02:53.134Z,59.4
2018-04-12T14:03:43.479Z,59.3
2018-04-12T14:04:33.606Z,59.3
2018-04-12T14:05:23.628Z,59.1
2018-04-12T14:06:13.386Z,59.1
2018-04-12T14:07:03.756Z,58.9
2018-04-12T14:07:53.533Z,58.8
2018-04-12T14:08:43.912Z,58.6
2018-04-12T14:09:33.943Z,58.5
2018-04-12T14:10:23.990Z,58.3
2018-04-12T14:11:14.066Z,58.1
2018-04-12T14:12:04.139Z,57.9
2018-04-12T14:12:54.204Z,57.7
2018-04-12T14:13:43.982Z,57.5
2018-04-12T14:14:33.753Z,57.3
2018-04-12T14:15:24.379Z,57.2
2018-04-12T14:16:14.461Z,57
2018-04-12T14:17:04.243Z,56.8
2018-04-12T14:17:54.593Z,56.7
2018-04-12T14:18:44.710Z,56.5
2018-04-12T14:19:34.731Z,56.3
2018-04-12T14:20:24.500Z,55.9
2018-04-12T14:21:14.542Z,55.8
2018-04-12T14:22:04.333Z,55.6
2018-04-12T14:22:54.960Z,55.4
2018-04-12T14:23:45.027Z,55.3
2018-04-12T14:24:35.085Z,55.1
2018-04-12T14:25:25.191Z,54.9
2018-04-12T14:26:15.270Z,54.7
2018-04-12T14:27:05.275Z,54.5
2018-04-12T14:27:54.803Z,54.3
2018-04-12T14:28:45.126Z,53.9
2018-04-12T14:29:35.479Z,53.6
2018-04-12T14:30:25.550Z,53.1
2018-04-12T14:31:15.623Z,52.7
2018-04-12T14:32:05.410Z,52.3
2018-04-12T14:32:55.731Z,51.8
2018-04-12T14:33:45.798Z,51.1
2018-04-12T14:34:35.867Z,50.6
2018-04-12T14:35:25.927Z,50
2018-04-12T14:36:16.144Z,49.4
2018-04-12T14:37:06.059Z,48.9
2018-04-12T14:37:55.569Z,48.3
2018-04-12T14:38:45.900Z,48
2018-04-12T14:39:35.976Z,47.8
2018-04-12T14:40:26.017Z,47.6
2018-04-12T14:41:16.367Z,47.4
2018-04-12T14:42:06.475Z,47.2
2018-04-12T14:42:55.946Z,47
2018-04-12T14:43:46.555Z,46.9
2018-04-12T14:44:36.651Z,46.8
2018-04-12T14:45:26.405Z,46.7
2018-04-12T14:46:16.203Z,46.6
2018-04-12T14:47:06.833Z,46.5
2018-04-12T14:47:56.876Z,46.4
2018-04-12T14:48:46.658Z,46.4
2018-04-12T14:49:37.009Z,46.3
2018-04-12T14:50:26.792Z,46.1
2018-04-12T14:51:17.142Z,45.9
2018-04-12T14:52:07.215Z,45.7
2018-04-12T14:52:57.258Z,45.4
2018-04-12T14:53:46.478Z,45.1
2018-04-12T14:54:37.394Z,44.8
2018-04-12T14:55:27.451Z,44.4
2018-04-12T14:56:17.254Z,44.1
2018-04-12T14:57:07.627Z,43.8
2018-04-12T14:57:57.381Z,43.5
2018-04-12T14:58:47.151Z,43.1
2018-04-12T14:59:37.529Z,42.8
2018-04-12T15:00:27.849Z,42.5
2018-04-12T15:01:17.907Z,42.3
2018-04-12T15:02:07.992Z,42.1
2018-04-12T15:02:57.758Z,41.8
2018-04-12T15:03:47.824Z,41.6
2018-04-12T15:04:37.940Z,41.4
2018-04-12T15:05:28.222Z,41.2
2018-04-12T15:06:18.085Z,41.1
2018-04-12T15:07:08.068Z,40.9
2018-04-12T15:07:58.432Z,40.8
2018-04-12T15:08:48.507Z,40.6
2018-04-12T15:09:38.255Z,40.4
2018-04-12T15:10:28.606Z,40.3
2018-04-12T15:11:18.685Z,40
2018-04-12T15:12:08.461Z,39.9
2018-04-12T15:12:58.644Z,39.7
2018-04-12T15:13:48.883Z,39.5
2018-04-12T15:14:38.368Z,39.4
2018-04-12T15:15:28.985Z,39.2
2018-04-12T15:16:18.505Z,39
2018-04-12T15:17:08.857Z,38.8
2018-04-12T15:17:58.625Z,38.7
2018-04-12T15:18:49.523Z,38.5
2018-04-12T15:19:39.297Z,38.3
2018-04-12T15:20:29.136Z,38.1
2018-04-12T15:21:18.864Z,37.9
2018-04-12T15:22:09.044Z,37.8
2018-04-12T15:22:59.591Z,37.6
2018-04-12T15:23:49.059Z,37.3
2018-04-12T15:24:39.677Z,37.2
2018-04-12T15:25:29.769Z,37
2018-04-12T15:26:19.561Z,36.9
2018-04-12T15:27:09.908Z,36.8
2018-04-12T15:27:59.951Z,36.6
2018-04-12T15:28:49.725Z,36.4
2018-04-12T15:29:40.065Z,36.3
2018-04-12T15:30:30.132Z,36.2
2018-04-12T15:31:19.651Z,36.1
2018-04-12T15:32:10.439Z,35.9
2018-04-12T15:33:00.343Z,35.8
2018-04-12T15:33:50.401Z,35.7
2018-04-12T15:34:40.475Z,35.6
2018-04-12T15:35:30.238Z,35.5
2018-04-12T15:36:20.306Z,35.4
2018-04-12T15:37:10.363Z,35.3
2018-04-12T15:38:00.705Z,35.3
2018-04-12T15:38:50.497Z,35.1
2018-04-12T15:39:40.563Z,35
2018-04-12T15:40:30.902Z,34.9
2018-04-12T15:41:20.963Z,34.8
2018-04-12T15:42:11.035Z,34.6
2018-04-12T15:43:00.530Z,34.5
2018-04-12T15:43:51.165Z,34.4
2018-04-12T15:44:40.647Z,34.3
2018-04-12T15:45:31.270Z,34.2
2018-04-12T15:46:21.345Z,34.1
2018-04-12T15:47:11.400Z,33.9
2018-04-12T15:48:01.182Z,33.9
2018-04-12T15:48:51.530Z,33.8
2018-04-12T15:49:41.603Z,33.7
2018-04-12T15:50:31.675Z,33.5
2018-04-12T15:51:21.472Z,33.4
2018-04-12T15:52:11.527Z,33.3
2018-04-12T15:53:01.291Z,33.1
2018-04-12T15:53:51.909Z,33.1
2018-04-12T15:54:41.723Z,32.9
2018-04-12T15:55:31.866Z,32.8
2018-04-12T15:56:21.834Z,32.7
2018-04-12T15:57:11.895Z,32.6
2018-04-12T15:58:02.256Z,32.5
2018-04-12T15:58:52.012Z,32.4
2018-04-12T15:59:42.382Z,32.3
2018-04-12T16:00:32.141Z,32.2
2018-04-12T16:01:22.307Z,32.1
2018-04-12T16:02:12.548Z,32
2018-04-12T16:03:02.636Z,31.9
2018-04-12T16:03:52.677Z,31.8
2018-04-12T16:04:42.441Z,31.7
2018-04-12T16:05:32.805Z,31.6
2018-04-12T16:06:22.871Z,31.5
2018-04-12T16:07:12.942Z,31.4
2018-04-12T16:08:03.017Z,31.3
2018-04-12T16:08:53.054Z,31.2
2018-04-12T16:09:43.128Z,31.1
2018-04-12T16:10:33.210Z,30.9
2018-04-12T16:11:23.276Z,30.9
2018-04-12T16:12:12.767Z,30.8
2018-04-12T16:13:03.391Z,30.6
2018-04-12T16:13:53.152Z,30.5
2018-04-12T16:14:43.230Z,30.4
2018-04-12T16:15:33.294Z,30.3
2018-04-12T16:16:23.630Z,30.1
2018-04-12T16:17:13.420Z,30
2018-04-12T16:18:03.776Z,29.9
2018-04-12T16:18:53.825Z,29.8
2018-04-12T16:19:43.903Z,29.6
2018-04-12T16:20:33.950Z,29.5
2018-04-12T16:21:24.020Z,29.4
2018-04-12T16:22:13.511Z,29.3
2018-04-12T16:23:04.139Z,29.2
2018-04-12T16:23:54.211Z,29.1
2018-04-12T16:24:43.981Z,28.9
2018-04-12T16:25:34.347Z,28.9
2018-04-12T16:26:24.116Z,28.8
2018-04-12T16:27:14.195Z,28.7
2018-04-12T16:28:04.516Z,28.6
2018-04-12T16:28:54.599Z,28.5
2018-04-12T16:29:44.363Z,28.4
2018-04-12T16:30:34.433Z,28.3
2018-04-12T16:31:24.517Z,28.3
2018-04-12T16:32:14.840Z,28.2
2018-04-12T16:33:04.898Z,28.1
2018-04-12T16:33:54.963Z,28
2018-04-12T16:34:45.042Z,27.9
2018-04-12T16:35:35.119Z,27.9
2018-04-12T16:37:14.670Z,27.7
2018-04-12T16:38:05.286Z,27.6
2018-04-12T16:38:55.389Z,27.5
2018-04-12T16:39:45.399Z,27.4
2018-04-12T16:40:35.194Z,27.4
2018-04-12T16:41:25.595Z,27.3
2018-04-12T16:42:15.590Z,27.2
2018-04-12T16:43:05.666Z,27.1
2018-04-12T16:43:55.715Z,27.1
2018-04-12T16:44:45.499Z,26.9
2018-04-12T16:45:35.858Z,26.9
2018-04-12T16:46:25.915Z,26.8
2018-04-12T16:47:15.414Z,26.7
2018-04-12T16:48:06.052Z,26.6
2018-04-12T16:48:56.107Z,26.6
2018-04-12T16:49:46.164Z,26.5
2018-04-12T16:50:35.939Z,26.4
2018-04-12T16:51:26.293Z,26.3
2018-04-12T16:52:16.384Z,26.3